Abbott, Texas
Current Conditions -  °F | °C
As of 9:15 PM on Friday 21 Nov 2014 (Local Time) from KINJ Reporting Station
Overcast Overcast  
Wind Chill: 65°   Ceiling: 800
Heat Index: 65°   Visibility: 7mi
Dew Point: 61°   Wind: 15mph
Humidity: 86%   Direction: 130°SE
Pressure: 30.09"   Gusts: 20mph
Location:  31.88°N, 97.07°W
Report Text: KINJ 220315Z AUTO 13013G17KT 7SM OVC008 19/16 A3009 RMK AO2 T01850161
Loading
Personal Weather Stations






























Interactive Weather Map New forecast layout! Learn more

10-Day Weather Forecast

Advertisements
Track Severe Weather on mobile